createdAt,value
2019-04-28T00:01:56.501Z,2.98
2019-04-28T00:04:23.185Z,4.08
2019-04-28T00:06:51.542Z,3.80
2019-04-28T00:09:18.961Z,5.75
2019-04-28T00:11:45.407Z,3.77
2019-04-28T00:14:12.646Z,4.25
2019-04-28T00:16:41.166Z,4.53
2019-04-28T00:19:07.979Z,3.15
2019-04-28T00:21:36.432Z,4.45
2019-04-28T00:24:08.153Z,4.75
2019-04-28T00:26:40.978Z,2.65
2019-04-28T00:29:07.721Z,3.70
2019-04-28T00:31:34.385Z,3.62
2019-04-28T00:34:01.496Z,4.45
2019-04-28T00:36:28.328Z,3.40
2019-04-28T00:38:54.868Z,3.25
2019-04-28T00:41:21.440Z,2.85
2019-04-28T00:43:47.906Z,4.17
2019-04-28T00:46:16.390Z,4.00
2019-04-28T00:48:42.829Z,3.37
2019-04-28T00:51:11.398Z,2.95
2019-04-28T00:53:37.763Z,3.70
2019-04-28T00:56:04.431Z,2.85
2019-04-28T00:58:31.907Z,2.95
2019-04-28T01:01:01.423Z,3.83
2019-04-28T01:03:28.024Z,3.27
2019-04-28T01:05:54.496Z,3.98
2019-04-28T01:08:21.041Z,2.40
2019-04-28T01:10:47.515Z,2.52
2019-04-28T01:13:13.958Z,3.27
2019-04-28T01:15:45.010Z,3.70
2019-04-28T01:18:16.544Z,2.62
2019-04-28T01:20:43.112Z,3.85
2019-04-28T01:23:10.331Z,3.80
2019-04-28T01:25:37.133Z,3.45
2019-04-28T01:28:03.783Z,3.40
2019-04-28T01:30:34.916Z,3.70
2019-04-28T01:33:03.266Z,3.70
2019-04-28T01:35:29.636Z,3.72
2019-04-28T01:37:56.202Z,2.67
2019-04-28T01:40:22.881Z,3.20
2019-04-28T01:42:49.974Z,2.95
2019-04-28T01:45:16.792Z,5.05
2019-04-28T01:47:43.281Z,3.52
2019-04-28T01:50:10.350Z,2.60
2019-04-28T01:52:36.905Z,2.95
2019-04-28T01:55:05.147Z,3.05
2019-04-28T01:57:31.527Z,2.60
2019-04-28T01:59:59.815Z,3.08
2019-04-28T02:02:46.312Z,2.47
2019-04-28T02:05:13.868Z,2.62
2019-04-28T02:07:40.744Z,2.37
2019-04-28T02:10:10.274Z,2.72
2019-04-28T02:12:36.982Z,2.65
2019-04-28T02:15:06.045Z,3.90
2019-04-28T02:17:32.729Z,3.12
2019-04-28T02:20:00.609Z,4.37
2019-04-28T02:22:31.729Z,3.70
2019-04-28T02:25:00.223Z,2.95
2019-04-28T02:27:26.869Z,3.50
2019-04-28T02:29:53.336Z,3.75
2019-04-28T02:32:21.276Z,3.50
2019-04-28T02:34:49.876Z,3.12
2019-04-28T02:37:16.641Z,3.52
2019-04-28T02:39:43.220Z,3.17
2019-04-28T02:42:10.909Z,2.90
2019-04-28T02:44:40.242Z,2.90
2019-04-28T02:47:06.312Z,3.22
2019-04-28T02:49:43.696Z,4.50
2019-04-28T02:52:27.360Z,3.83
2019-04-28T02:54:54.315Z,3.52
2019-04-28T02:57:21.076Z,3.87
2019-04-28T02:59:50.730Z,3.55
2019-04-28T03:02:16.480Z,3.30
2019-04-28T03:04:43.025Z,3.47
2019-04-28T03:07:11.577Z,4.05
2019-04-28T03:09:40.199Z,4.45
2019-04-28T03:12:06.525Z,3.35
2019-04-28T03:14:33.172Z,2.83
2019-04-28T03:17:00.856Z,3.72
2019-04-28T03:19:27.468Z,3.65
2019-04-28T03:21:54.046Z,3.47
2019-04-28T03:24:21.493Z,2.62
2019-04-28T03:26:56.014Z,2.80
2019-04-28T03:29:31.414Z,3.40
2019-04-28T03:32:28.451Z,2.45
2019-04-28T03:34:43.620Z,2.42
2019-04-28T03:37:11.322Z,2.92
2019-04-28T03:39:40.386Z,3.02
2019-04-28T03:42:06.273Z,2.67
2019-04-28T03:44:33.964Z,4.25
2019-04-28T03:47:03.019Z,2.58
2019-04-28T03:49:35.113Z,2.80
2019-04-28T03:52:03.459Z,2.75
2019-04-28T03:54:30.404Z,2.58
2019-04-28T03:56:57.192Z,2.83
2019-04-28T03:59:24.338Z,2.70
2019-04-28T04:01:56.748Z,2.95
2019-04-28T04:04:21.309Z,2.77
2019-04-28T04:07:07.536Z,2.45
2019-04-28T04:09:41.853Z,2.40
2019-04-28T04:12:22.820Z,3.67
2019-04-28T04:14:51.282Z,2.92
2019-04-28T04:17:30.536Z,2.85
2019-04-28T04:19:57.157Z,2.60
2019-04-28T04:22:23.826Z,2.75
2019-04-28T04:24:52.442Z,3.35
2019-04-28T04:27:20.912Z,2.45
2019-04-28T04:29:46.817Z,4.25
2019-04-28T04:32:22.859Z,3.52
2019-04-28T04:34:41.532Z,2.80
2019-04-28T04:37:10.410Z,2.40
2019-04-28T04:39:36.249Z,2.58
2019-04-28T04:42:03.040Z,3.05
2019-04-28T04:44:31.041Z,2.50
2019-04-28T04:46:57.650Z,2.90
2019-04-28T04:49:24.514Z,3.05
2019-04-28T04:51:51.166Z,2.30
2019-04-28T04:54:20.235Z,3.67
2019-04-28T04:56:46.067Z,4.45
2019-04-28T04:59:12.537Z,4.28
2019-04-28T05:01:41.035Z,2.70
2019-04-28T05:04:19.711Z,3.33
2019-04-28T05:06:46.512Z,3.47
2019-04-28T05:09:12.988Z,4.10
2019-04-28T05:11:40.169Z,4.60
2019-04-28T05:14:07.602Z,2.90
2019-04-28T05:16:34.351Z,2.92
2019-04-28T05:19:01.425Z,2.75
2019-04-28T05:21:32.602Z,3.37
2019-04-28T05:24:16.367Z,3.37
2019-04-28T05:26:47.681Z,3.67
2019-04-28T05:29:13.646Z,3.62
2019-04-28T05:31:40.288Z,3.50
2019-04-28T05:34:08.194Z,2.98
2019-04-28T05:36:41.170Z,3.35
2019-04-28T05:39:05.101Z,3.17
2019-04-28T05:41:31.668Z,3.40
2019-04-28T05:43:59.606Z,3.30
2019-04-28T05:46:26.196Z,2.20
2019-04-28T05:49:03.468Z,3.37
2019-04-28T05:51:34.889Z,4.00
2019-04-28T05:54:15.375Z,3.33
2019-04-28T05:56:46.675Z,2.80
2019-04-28T05:59:21.422Z,3.60
2019-04-28T06:02:00.637Z,3.33
2019-04-28T06:04:28.013Z,4.45
2019-04-28T06:06:56.551Z,4.53
2019-04-28T06:09:30.976Z,6.20
2019-04-28T06:11:57.420Z,4.87
2019-04-28T06:14:23.788Z,4.28
2019-04-28T06:16:50.695Z,6.33
2019-04-28T06:19:17.316Z,3.62
2019-04-28T06:21:43.754Z,3.60
2019-04-28T06:24:10.232Z,3.67
2019-04-28T06:26:36.671Z,4.92
2019-04-28T06:29:03.617Z,3.55
2019-04-28T06:31:30.072Z,4.00
2019-04-28T06:33:56.520Z,3.40
2019-04-28T06:36:23.097Z,2.72
2019-04-28T06:38:49.647Z,3.12
2019-04-28T06:41:16.135Z,3.45
2019-04-28T06:43:42.592Z,3.37
2019-04-28T06:46:09.260Z,3.75
2019-04-28T06:48:35.713Z,3.10
2019-04-28T06:51:02.278Z,2.60
2019-04-28T06:53:28.919Z,2.58
2019-04-28T06:55:55.300Z,3.60
2019-04-28T06:58:21.854Z,3.37
2019-04-28T07:00:48.314Z,2.62
2019-04-28T07:03:23.043Z,2.90
2019-04-28T07:05:43.332Z,3.52
2019-04-28T07:08:09.693Z,2.62
2019-04-28T07:10:36.561Z,3.95
2019-04-28T07:13:03.107Z,3.10
2019-04-28T07:15:29.479Z,2.62
2019-04-28T07:17:56.107Z,3.80
2019-04-28T07:20:40.111Z,2.50
2019-04-28T07:23:08.085Z,3.12
2019-04-28T07:25:35.047Z,2.17
2019-04-28T07:28:02.383Z,2.02
2019-04-28T07:30:29.436Z,2.12
2019-04-28T07:32:56.477Z,2.12
2019-04-28T07:35:22.966Z,2.80
2019-04-28T07:37:49.520Z,2.10
2019-04-28T07:40:16.502Z,2.77
2019-04-28T07:42:42.974Z,2.17
2019-04-28T07:45:09.649Z,2.00
2019-04-28T07:47:36.209Z,3.00
2019-04-28T07:50:06.502Z,3.55
2019-04-28T07:52:34.854Z,2.47
2019-04-28T07:55:01.321Z,1.98
2019-04-28T07:57:27.913Z,2.25
2019-04-28T07:59:54.729Z,2.02
2019-04-28T08:02:21.308Z,2.80
2019-04-28T08:04:47.764Z,2.47
2019-04-28T08:07:14.339Z,1.87
2019-04-28T08:09:40.791Z,2.72
2019-04-28T08:12:07.274Z,1.65
2019-04-28T08:14:33.931Z,2.67
2019-04-28T08:17:00.512Z,2.20
2019-04-28T08:19:27.074Z,2.57
2019-04-28T08:21:53.551Z,1.93
2019-04-28T08:24:20.092Z,1.93
2019-04-28T08:26:46.677Z,2.07
2019-04-28T08:29:13.115Z,1.70
2019-04-28T08:31:41.600Z,2.07
2019-04-28T08:34:09.946Z,1.93
2019-04-28T08:36:36.760Z,1.87
2019-04-28T08:39:05.512Z,2.20
2019-04-28T08:41:32.103Z,2.30
2019-04-28T08:43:58.653Z,2.13
2019-04-28T08:46:44.997Z,2.13
2019-04-28T08:49:11.765Z,1.90
2019-04-28T08:51:38.703Z,2.10
2019-04-28T08:54:05.356Z,2.17
2019-04-28T08:56:31.744Z,2.35
2019-04-28T08:58:58.720Z,1.85
2019-04-28T09:01:25.312Z,1.90
2019-04-28T09:03:51.773Z,2.45
2019-04-28T09:06:18.366Z,1.67
2019-04-28T09:08:45.175Z,2.13
2019-04-28T09:11:12.117Z,2.00
2019-04-28T09:13:38.962Z,1.77
2019-04-28T09:16:05.803Z,2.80
2019-04-28T09:18:32.380Z,1.90
2019-04-28T09:20:59.041Z,1.72
2019-04-28T09:23:25.516Z,1.65
2019-04-28T09:25:51.889Z,2.27
2019-04-28T09:28:18.562Z,2.42
2019-04-28T09:30:45.622Z,2.00
2019-04-28T09:33:12.106Z,3.33
2019-04-28T09:35:38.547Z,2.20
2019-04-28T09:38:05.041Z,1.65
2019-04-28T09:40:31.512Z,2.50
2019-04-28T09:42:59.992Z,2.08
2019-04-28T09:45:28.443Z,1.00
2019-04-28T09:47:55.173Z,1.80
2019-04-28T09:50:21.633Z,1.70
2019-04-28T09:52:48.827Z,1.60
2019-04-28T09:55:16.012Z,1.47
2019-04-28T09:57:42.587Z,1.90
2019-04-28T10:00:10.747Z,1.70
2019-04-28T10:02:37.136Z,2.73
2019-04-28T10:05:06.685Z,2.50
2019-04-28T10:07:33.155Z,2.10
2019-04-28T10:09:59.606Z,1.90
2019-04-28T10:12:27.141Z,1.90
2019-04-28T10:14:54.135Z,2.10
2019-04-28T10:17:20.716Z,1.67
2019-04-28T10:19:47.174Z,1.70
2019-04-28T10:22:13.946Z,1.90
2019-04-28T10:24:40.487Z,1.40
2019-04-28T10:27:07.837Z,1.37
2019-04-28T10:29:34.307Z,1.10
2019-04-28T10:32:00.896Z,1.30
2019-04-28T10:34:27.463Z,1.40
2019-04-28T10:36:53.932Z,1.27
2019-04-28T10:39:22.529Z,1.00
2019-04-28T10:41:49.514Z,0.70
2019-04-28T10:44:16.067Z,0.87
2019-04-28T10:46:42.616Z,0.90
2019-04-28T10:49:14.921Z,0.67
2019-04-28T10:51:41.616Z,1.13
2019-04-28T10:54:08.083Z,1.00
2019-04-28T10:56:34.539Z,1.13
2019-04-28T10:59:01.117Z,0.90
2019-04-28T11:01:27.564Z,1.10
2019-04-28T11:03:56.135Z,1.10
2019-04-28T11:06:42.440Z,1.10
2019-04-28T11:09:13.595Z,1.37
2019-04-28T11:11:40.050Z,1.00
2019-04-28T11:14:06.640Z,1.23
2019-04-28T11:16:34.494Z,16.43
2019-04-28T11:19:01.550Z,1.10
2019-04-28T11:21:28.364Z,0.90
2019-04-28T11:23:54.929Z,0.97
2019-04-28T11:26:21.381Z,1.60
2019-04-28T11:28:47.967Z,1.17
2019-04-28T11:31:14.647Z,0.80
2019-04-28T11:33:43.230Z,0.80
2019-04-28T11:36:09.875Z,1.40
2019-04-28T11:38:36.580Z,0.90
2019-04-28T11:41:04.031Z,0.90
2019-04-28T11:43:30.415Z,1.00
2019-04-28T11:45:56.869Z,0.90
2019-04-28T11:48:23.352Z,0.97
2019-04-28T11:50:49.901Z,1.20
2019-04-28T11:53:16.634Z,1.43
2019-04-28T11:55:43.101Z,0.83
2019-04-28T11:58:09.766Z,1.20
2019-04-28T12:00:36.645Z,0.90
2019-04-28T12:03:22.952Z,1.07
2019-04-28T12:05:49.372Z,0.80
2019-04-28T12:08:15.832Z,1.00
2019-04-28T12:10:59.665Z,1.17
2019-04-28T12:13:28.129Z,1.07
2019-04-28T12:15:56.749Z,0.77
2019-04-28T12:18:42.119Z,0.90
2019-04-28T12:21:08.788Z,0.90
2019-04-28T12:23:35.536Z,0.60
2019-04-28T12:26:02.122Z,0.90
2019-04-28T12:28:28.860Z,1.07
2019-04-28T12:30:55.441Z,0.60
2019-04-28T12:33:21.900Z,0.53
2019-04-28T12:35:48.412Z,0.50
2019-04-28T12:38:14.944Z,0.50
2019-04-28T12:40:41.456Z,0.90
2019-04-28T12:43:07.904Z,0.70
2019-04-28T12:45:35.425Z,0.60
2019-04-28T12:48:02.507Z,0.60
2019-04-28T12:50:33.937Z,0.57
2019-04-28T12:53:00.397Z,0.63
2019-04-28T12:55:27.079Z,0.70
2019-04-28T12:57:53.443Z,0.70
2019-04-28T13:00:22.326Z,0.60
2019-04-28T13:03:07.453Z,0.50
2019-04-28T13:05:35.844Z,2.20
2019-04-28T13:08:02.824Z,0.80
2019-04-28T13:10:29.405Z,0.70
2019-04-28T13:12:55.856Z,0.60
2019-04-28T13:15:22.738Z,0.90
2019-04-28T13:17:49.480Z,0.60
2019-04-28T13:20:16.172Z,0.70
2019-04-28T13:22:42.633Z,0.70
2019-04-28T13:25:09.484Z,0.60
2019-04-28T13:27:35.964Z,0.72
2019-04-28T13:30:04.730Z,0.60
2019-04-28T13:32:31.205Z,0.60
2019-04-28T13:34:57.762Z,2.35
2019-04-28T13:37:24.736Z,0.70
2019-04-28T13:39:53.132Z,0.75
2019-04-28T13:42:19.709Z,0.98
2019-04-28T13:47:46.232Z,1.00
2019-04-28T13:50:27.307Z,0.80
2019-04-28T13:52:53.893Z,0.90
2019-04-28T13:55:28.352Z,1.20
2019-04-28T13:57:56.530Z,1.00
2019-04-28T14:00:41.643Z,1.10
2019-04-28T14:03:10.131Z,1.02
2019-04-28T14:05:57.402Z,1.00
2019-04-28T14:08:23.965Z,1.40
2019-04-28T14:10:50.775Z,1.40
2019-04-28T14:13:37.123Z,1.20
2019-04-28T14:16:03.890Z,1.32
2019-04-28T14:18:30.461Z,1.07
2019-04-28T14:20:56.925Z,1.67
2019-04-28T14:23:23.399Z,1.27
2019-04-28T14:25:50.052Z,1.30
2019-04-28T14:28:16.627Z,1.22
2019-04-28T14:30:43.281Z,1.07
2019-04-28T14:33:09.829Z,1.17
2019-04-28T14:35:36.444Z,1.30
2019-04-28T14:38:03.111Z,1.30
2019-04-28T14:40:29.491Z,2.00
2019-04-28T14:42:56.187Z,1.17
2019-04-28T14:45:22.675Z,1.35
2019-04-28T14:47:49.618Z,1.65
2019-04-28T14:50:16.572Z,1.45
2019-04-28T14:52:43.389Z,1.30
2019-04-28T14:55:10.181Z,1.05
2019-04-28T14:57:36.627Z,1.40
2019-04-28T15:00:05.394Z,1.80
2019-04-28T15:02:48.844Z,1.65
2019-04-28T15:05:17.258Z,1.35
2019-04-28T15:07:48.620Z,1.10
2019-04-28T15:10:19.983Z,0.80
2019-04-28T15:12:46.570Z,1.02
2019-04-28T15:15:13.276Z,1.20
2019-04-28T15:17:39.831Z,0.90
2019-04-28T15:20:06.619Z,0.90
2019-04-28T15:22:33.100Z,0.93
2019-04-28T15:24:59.645Z,0.70
2019-04-28T15:27:26.116Z,0.70
2019-04-28T15:29:52.659Z,1.00
2019-04-28T15:32:19.135Z,0.80
2019-04-28T15:34:45.679Z,0.93
2019-04-28T15:37:15.219Z,0.78
2019-04-28T15:39:40.940Z,0.75
2019-04-28T15:42:07.421Z,1.00
2019-04-28T15:44:33.871Z,1.00
2019-04-28T15:47:00.360Z,1.10
2019-04-28T15:49:26.817Z,1.02
2019-04-28T15:51:53.404Z,0.80
2019-04-28T15:54:20.177Z,0.90
2019-04-28T15:56:47.350Z,0.60
2019-04-28T15:59:14.039Z,0.68
2019-04-28T16:01:40.560Z,0.65
2019-04-28T16:04:26.901Z,0.80
2019-04-28T16:06:53.475Z,0.50
2019-04-28T16:09:19.932Z,0.68
2019-04-28T16:11:46.579Z,0.70
2019-04-28T16:14:13.160Z,0.80
2019-04-28T16:16:39.892Z,0.82
2019-04-28T16:19:06.656Z,0.72
2019-04-28T16:21:33.111Z,0.70
2019-04-28T16:23:59.900Z,0.60
2019-04-28T16:26:26.371Z,0.60
2019-04-28T16:28:52.857Z,1.47
2019-04-28T16:31:19.413Z,0.77
2019-04-28T16:33:45.976Z,1.10
2019-04-28T16:36:12.423Z,0.70
2019-04-28T16:38:38.929Z,0.80
2019-04-28T16:41:06.110Z,0.80
2019-04-28T16:43:38.348Z,1.00
2019-04-28T16:46:04.776Z,0.70
2019-04-28T16:48:31.344Z,0.80
2019-04-28T16:50:57.812Z,0.77
2019-04-28T16:53:24.681Z,0.78
2019-04-28T16:55:53.043Z,0.70
2019-04-28T16:58:37.972Z,0.80
2019-04-28T17:01:06.359Z,1.45
2019-04-28T17:03:34.727Z,0.70
2019-04-28T17:06:01.172Z,0.65
2019-04-28T17:08:27.764Z,0.80
2019-04-28T17:10:54.436Z,0.70
2019-04-28T17:13:21.012Z,0.50
2019-04-28T17:15:47.467Z,0.50
2019-04-28T17:18:13.955Z,0.75
2019-04-28T17:20:43.508Z,0.50
2019-04-28T17:23:09.893Z,0.47
2019-04-28T17:25:36.348Z,0.50
2019-04-28T17:28:03.615Z,0.50
2019-04-28T17:30:30.124Z,0.68
2019-04-28T17:32:56.564Z,0.50
2019-04-28T17:35:23.442Z,0.50
2019-04-28T17:37:50.099Z,0.57
2019-04-28T17:40:16.716Z,1.23
2019-04-28T17:42:43.267Z,0.70
2019-04-28T17:45:29.968Z,0.70
2019-04-28T17:47:58.340Z,0.65
2019-04-28T17:50:26.219Z,0.72
2019-04-28T17:52:52.684Z,0.70
2019-04-28T17:55:19.259Z,0.60
2019-04-28T17:57:45.620Z,0.98
2019-04-28T18:00:14.214Z,0.80
2019-04-28T18:02:48.465Z,6.33
2019-04-28T18:05:32.139Z,1.15
2019-04-28T18:08:00.503Z,2.95
2019-04-28T18:10:27.613Z,2.43
2019-04-28T18:13:00.738Z,1.27
2019-04-28T18:15:24.356Z,0.98
2019-04-28T18:17:55.719Z,1.02
2019-04-28T18:20:22.295Z,0.60
2019-04-28T18:22:48.755Z,1.02
2019-04-28T18:25:35.089Z,1.00
2019-04-28T18:28:01.648Z,0.78
2019-04-28T18:30:30.379Z,1.02
2019-04-28T18:33:15.230Z,1.12
2019-04-28T18:35:46.623Z,1.00
2019-04-28T18:38:15.200Z,0.95
2019-04-28T18:40:43.864Z,1.25
2019-04-28T18:43:12.556Z,0.98
2019-04-28T18:45:39.231Z,1.00
2019-04-28T18:48:05.675Z,1.10
2019-04-28T18:50:32.548Z,1.25
2019-04-28T18:52:59.123Z,1.20
2019-04-28T18:55:25.585Z,0.90
2019-04-28T18:57:52.141Z,1.20
2019-04-28T19:00:20.607Z,1.10
2019-04-28T19:02:47.862Z,1.50
2019-04-28T19:05:14.511Z,1.40
2019-04-28T19:07:48.886Z,1.62
2019-04-28T19:10:20.733Z,1.67
2019-04-28T19:12:54.848Z,2.50
2019-04-28T19:15:41.287Z,1.60
2019-04-28T19:18:09.644Z,1.95
2019-04-28T19:20:36.130Z,1.30
2019-04-28T19:23:02.782Z,1.55
2019-04-28T19:25:29.242Z,1.40
2019-04-28T19:27:55.915Z,1.92
2019-04-28T19:30:22.383Z,1.65
2019-04-28T19:32:48.859Z,1.20
2019-04-28T19:35:15.407Z,1.90
2019-04-28T19:37:41.796Z,1.98
2019-04-28T19:40:08.977Z,1.47
2019-04-28T19:42:35.559Z,1.65
2019-04-28T19:45:03.910Z,2.12
2019-04-28T19:47:30.383Z,1.42
2019-04-28T19:49:56.744Z,1.70
2019-04-28T19:52:23.195Z,1.30
2019-04-28T19:54:51.577Z,1.85
2019-04-28T19:57:23.007Z,1.90
2019-04-28T19:59:54.104Z,1.60
2019-04-28T20:02:20.761Z,1.20
2019-04-28T20:04:47.231Z,1.70
2019-04-28T20:07:13.679Z,1.82
2019-04-28T20:09:40.149Z,1.65
2019-04-28T20:12:06.595Z,2.00
2019-04-28T20:14:52.820Z,1.67
2019-04-28T20:17:19.285Z,1.80
2019-04-28T20:19:45.870Z,1.72
2019-04-28T20:22:12.407Z,1.75
2019-04-28T20:24:46.993Z,1.85
2019-04-28T20:27:07.138Z,2.00
2019-04-28T20:29:33.983Z,2.17
2019-04-28T20:32:00.452Z,1.98
2019-04-28T20:34:26.809Z,2.30
2019-04-28T20:36:58.277Z,2.40
2019-04-28T20:39:29.425Z,2.47
2019-04-28T20:41:57.893Z,2.02
2019-04-28T20:44:24.436Z,2.72
2019-04-28T20:46:50.925Z,2.25
2019-04-28T20:49:17.361Z,2.25
2019-04-28T20:51:44.067Z,2.20
2019-04-28T20:54:10.807Z,2.47
2019-04-28T20:56:37.569Z,2.75
2019-04-28T20:59:04.330Z,2.37
2019-04-28T21:01:31.000Z,2.80
2019-04-28T21:03:57.511Z,2.42
2019-04-28T21:06:24.313Z,3.12
2019-04-28T21:08:50.772Z,3.05
2019-04-28T21:11:17.345Z,2.80
2019-04-28T21:13:43.793Z,2.60
2019-04-28T21:16:10.336Z,3.47
2019-04-28T21:18:36.904Z,3.10
2019-04-28T21:21:03.448Z,2.85
2019-04-28T21:23:29.925Z,3.02
2019-04-28T21:25:56.696Z,2.10
2019-04-28T21:28:23.067Z,2.92
2019-04-28T21:30:49.411Z,2.80
2019-04-28T21:33:15.782Z,3.20
2019-04-28T21:35:42.328Z,3.22
2019-04-28T21:38:08.808Z,3.10
2019-04-28T21:40:36.084Z,3.20
2019-04-28T21:43:13.767Z,3.40
2019-04-28T21:45:54.688Z,3.25
2019-04-28T21:48:32.443Z,3.20
2019-04-28T21:50:59.284Z,3.47
2019-04-28T21:53:25.661Z,3.90
2019-04-28T21:55:52.117Z,3.00
2019-04-28T21:58:18.575Z,3.75
2019-04-28T22:00:47.033Z,3.47
2019-04-28T22:03:13.959Z,3.67
2019-04-28T22:05:40.405Z,3.40
2019-04-28T22:08:06.880Z,3.65
2019-04-28T22:10:33.542Z,3.45
2019-04-28T22:13:00.107Z,3.65
2019-04-28T22:15:26.460Z,4.20
2019-04-28T22:17:53.177Z,3.95
2019-04-28T22:20:19.615Z,3.52
2019-04-28T22:22:46.097Z,4.12
2019-04-28T22:25:14.927Z,4.67
2019-04-28T22:27:42.119Z,4.40
2019-04-28T22:30:09.141Z,3.50
2019-04-28T22:32:35.824Z,4.42
2019-04-28T22:35:04.271Z,3.62
2019-04-28T22:37:30.744Z,3.67
2019-04-28T22:39:57.220Z,4.30
2019-04-28T22:42:23.720Z,4.15
2019-04-28T22:44:50.264Z,5.08
2019-04-28T22:47:16.733Z,4.20
2019-04-28T22:49:43.200Z,4.03
2019-04-28T22:52:09.566Z,3.50
2019-04-28T22:54:37.946Z,4.50
2019-04-28T22:57:06.396Z,4.75
2019-04-28T22:59:34.769Z,3.83
2019-04-28T23:02:03.419Z,4.03
2019-04-28T23:04:34.659Z,3.87
2019-04-28T23:07:01.200Z,3.15
2019-04-28T23:09:27.972Z,2.62
2019-04-28T23:11:54.527Z,3.30
2019-04-28T23:14:40.853Z,3.67
2019-04-28T23:17:09.495Z,3.15
2019-04-28T23:19:38.097Z,3.12
2019-04-28T23:22:06.732Z,3.72
2019-04-28T23:24:33.413Z,3.98
2019-04-28T23:27:00.159Z,3.12
2019-04-28T23:29:26.828Z,2.85
2019-04-28T23:31:53.587Z,3.33
2019-04-28T23:34:20.058Z,3.30
2019-04-28T23:36:46.609Z,3.55
2019-04-28T23:39:13.072Z,4.28
2019-04-28T23:41:44.436Z,3.52
2019-04-28T23:44:11.030Z,3.80
2019-04-28T23:46:57.064Z,3.60
2019-04-28T23:49:25.247Z,3.17
2019-04-28T23:52:02.971Z,3.17
2019-04-28T23:54:29.447Z,3.00
2019-04-28T23:56:55.888Z,3.08
2019-04-28T23:59:22.263Z,3.12
